Hustontown, Pennsylvania
Current Conditions -  °F | °C
As of 3:53 AM on Saturday 25 Oct 2014 (Local Time) from KAOO Reporting Station
Clear Clear  
Wind Chill: 41°   Ceiling: Unl
Heat Index: 46°   Visibility: 10mi
Dew Point: 39°   Wind: 9mph
Humidity: 76%   Direction: 220°SW
Pressure: 29.96"   Gusts: NA
Location:  40.05°N, 78.03°W
Report Text: KAOO 250753Z AUTO 22008KT 10SM CLR 08/04 A2996 RMK AO2 SLP148 T00780039
Loading
Personal Weather Stations






























Interactive Weather Map New forecast layout! Learn more

10-Day Weather Forecast

Advertisements
Track Severe Weather on mobile